Terminal Aerodrome Forecast
Issued by NWS Sterling, VA

Current Version | Previous Version | Graphics & Text | Print | Product List | Glossary On
Versions: 1 2 3 4 5 6 7 8 9 10 11 12 13 14 15 16 17
000
FTUS41 KLWX 211740
TAFMRB
TAF
KMRB 211740Z 2118/2218 VRB05KT 4SM BR SCT008 OVC020
     FM212000 VRB03KT P6SM BKN035
     FM220400 31006KT P6SM SCT120=

USA.gov is the U.S. government's official web portal to all federal, state and local government web resources and services.